Time;durP1;ratioP1;P1;durP2;ratioP2;P2;SDS_P1;SDS_P2;PMS_P1;PMS_P2;Temp;Humidity;BMP_temperature;BMP_pressure;BME280_temperature;BME280_humidity;BME280_pressure;Samples;Min_cycle;Max_cycle;Signal;HPM_P1;HPM_P2
2022/04/17 00:01:02;;;;;;;69.93;48.25;;;6.00;94.70;;;;;;5076319;28;20512;-74
2022/04/17 00:03:28;;;;;;;39.05;28.23;;;6.00;94.40;;;;;;5057724;28;20080;-74
2022/04/17 00:05:54;;;;;;;40.15;28.23;;;6.00;94.60;;;;;;5076186;28;20043;-73
2022/04/17 00:08:20;;;;;;;25.58;18.52;;;6.00;94.90;;;;;;5075899;28;20052;-73
2022/04/17 00:10:48;;;;;;;21.55;12.02;;;6.00;95.00;;;;;;5075454;28;20135;-73
2022/04/17 00:13:15;;;;;;;19.38;11.93;;;6.00;95.30;;;;;;5075746;28;20060;-74
2022/04/17 00:15:40;;;;;;;17.25;10.07;;;5.90;95.90;;;;;;5076030;28;20094;-74
2022/04/17 00:18:07;;;;;;;103.38;71.15;;;5.90;96.40;;;;;;5057462;28;20060;-74
2022/04/17 00:20:32;;;;;;;15.05;9.30;;;5.90;96.60;;;;;;5057780;28;20076;-72
2022/04/17 00:22:58;;;;;;;23.58;13.35;;;5.90;96.50;;;;;;5075791;28;20106;-74
2022/04/17 00:25:24;;;;;;;22.20;12.70;;;5.90;96.70;;;;;;5075091;28;20128;-73
2022/04/17 00:27:49;;;;;;;14.27;8.65;;;5.80;96.90;;;;;;5057622;28;20487;-74
2022/04/17 00:30:15;;;;;;;16.77;9.88;;;5.80;97.00;;;;;;5057916;28;20103;-74
2022/04/17 00:32:41;;;;;;;13.23;7.53;;;5.70;97.20;;;;;;5075869;28;20040;-73
2022/04/17 00:35:08;;;;;;;24.55;16.08;;;5.70;97.70;;;;;;5057628;28;20056;-74
2022/04/17 00:37:34;;;;;;;15.35;8.65;;;5.70;97.90;;;;;;5057392;28;20510;-75
2022/04/17 00:40:01;;;;;;;17.77;10.07;;;5.70;97.50;;;;;;5075358;28;20059;-74
2022/04/17 00:42:26;;;;;;;16.98;10.43;;;5.70;97.60;;;;;;5074763;28;20041;-74
2022/04/17 00:44:52;;;;;;;15.40;8.65;;;5.70;97.90;;;;;;5057090;28;20101;-74
2022/04/17 00:47:18;;;;;;;13.88;7.93;;;5.70;98.00;;;;;;5057586;28;20546;-74
2022/04/17 00:49:45;;;;;;;14.18;7.35;;;5.90;98.30;;;;;;5075404;28;20052;-73
2022/04/17 00:52:11;;;;;;;14.63;7.95;;;5.60;98.70;;;;;;5074900;28;20502;-74
2022/04/17 00:54:45;;;;;;;15.40;7.88;;;5.60;99.40;;;;;;5075181;28;20116;-74
2022/04/17 00:57:12;;;;;;;14.90;7.63;;;5.60;99.40;;;;;;5074685;28;20178;-74
2022/04/17 00:59:41;;;;;;;14.50;7.50;;;5.50;99.50;;;;;;5075170;28;20045;-73
2022/04/17 01:02:07;;;;;;;15.32;8.30;;;5.50;99.90;;;;;;5040120;28;20132;-73
2022/04/17 01:04:32;;;;;;;13.25;7.10;;;5.50;99.90;;;;;;5039479;28;20123;-74
2022/04/17 01:06:58;;;;;;;13.43;7.13;;;5.40;99.80;;;;;;5056909;28;20045;-73
2022/04/17 01:09:24;;;;;;;13.98;7.93;;;5.40;99.90;;;;;;5075135;28;20105;-73
2022/04/17 01:11:51;;;;;;;13.02;7.40;;;5.30;99.90;;;;;;5074857;28;20048;-75
2022/04/17 01:14:17;;;;;;;14.55;7.60;;;5.30;99.90;;;;;;5074029;28;20560;-73
2022/04/17 01:16:43;;;;;;;13.82;7.22;;;5.30;99.90;;;;;;5075084;28;20080;-73
2022/04/17 01:19:12;;;;;;;14.77;7.65;;;5.30;99.90;;;;;;5056616;28;20056;-73
2022/04/17 01:21:41;;;;;;;15.10;7.57;;;5.20;99.90;;;;;;5074849;28;20105;-72
2022/04/17 01:26:59;;;;;;;13.52;7.43;;;5.10;99.90;;;;;;5074572;28;20123;-73
2022/04/17 01:29:27;;;;;;;12.82;7.38;;;5.00;99.90;;;;;;5074814;28;20038;-73
2022/04/17 01:31:53;;;;;;;14.10;7.30;;;5.00;99.90;;;;;;5056362;28;20052;-70
2022/04/17 01:34:21;;;;;;;15.38;7.70;;;5.00;99.90;;;;;;5074317;28;20119;-74
2022/04/17 01:36:49;;;;;;;14.13;7.85;;;4.90;99.90;;;;;;5074638;28;20044;-74
2022/04/17 01:39:15;;;;;;;14.73;7.65;;;4.90;99.90;;;;;;5075083;28;20123;-73
2022/04/17 01:41:41;;;;;;;14.05;7.95;;;4.80;99.90;;;;;;5074386;28;20090;-75
2022/04/17 01:44:07;;;;;;;14.55;8.38;;;4.80;99.90;;;;;;5074413;28;20044;-73
2022/04/17 01:46:33;;;;;;;13.27;7.78;;;4.70;99.90;;;;;;5055870;28;20114;-75
2022/04/17 01:48:59;;;;;;;12.95;7.38;;;4.70;99.90;;;;;;5056138;28;20056;-73
2022/04/17 01:51:25;;;;;;;14.32;7.55;;;4.60;99.90;;;;;;5074274;28;20037;-74
2022/04/17 01:53:51;;;;;;;15.43;8.13;;;4.60;99.90;;;;;;5074049;28;20083;-75
2022/04/17 01:56:16;;;;;;;15.73;7.75;;;4.50;99.90;;;;;;5055771;28;20047;-74
2022/04/17 01:58:42;;;;;;;13.52;7.47;;;4.50;99.90;;;;;;5074040;28;20052;-74
2022/04/17 02:01:08;;;;;;;13.98;7.90;;;4.40;99.90;;;;;;5073758;28;20377;-73
2022/04/17 02:03:34;;;;;;;14.60;6.95;;;4.40;99.90;;;;;;5073319;28;20051;-73
2022/04/17 02:06:02;;;;;;;13.00;7.47;;;4.30;99.90;;;;;;5038866;28;20091;-73
2022/04/17 02:08:28;;;;;;;16.23;8.32;;;4.20;99.90;;;;;;5056249;28;20514;-74
2022/04/17 02:10:55;;;;;;;15.98;8.55;;;4.20;99.90;;;;;;5055511;28;20052;-75
2022/04/17 02:13:21;;;;;;;15.00;8.25;;;4.10;99.90;;;;;;5073795;28;20059;-75
2022/04/17 02:15:49;;;;;;;14.85;8.57;;;4.10;99.90;;;;;;5073662;28;20033;-75
2022/04/17 02:18:16;;;;;;;13.00;7.75;;;4.00;99.90;;;;;;5072990;28;20044;-75
2022/04/17 02:20:42;;;;;;;18.45;10.13;;;4.20;99.90;;;;;;5072981;28;20473;-72
2022/04/17 02:23:07;;;;;;;17.38;7.78;;;4.00;99.90;;;;;;5073309;28;20072;-73
2022/04/17 02:25:33;;;;;;;16.38;8.20;;;4.00;99.90;;;;;;5073323;28;20044;-74
2022/04/17 02:27:59;;;;;;;14.95;7.60;;;4.00;99.90;;;;;;5073279;28;20098;-74
2022/04/17 02:30:24;;;;;;;19.05;10.48;;;4.00;99.90;;;;;;5055623;28;20475;-76
2022/04/17 02:32:50;;;;;;;27.65;16.20;;;4.00;99.90;;;;;;5055533;28;20055;-73
2022/04/17 02:35:17;;;;;;;17.52;10.48;;;4.10;99.90;;;;;;5072632;28;20041;-72
2022/04/17 02:37:42;;;;;;;21.75;12.30;;;4.00;99.90;;;;;;5054979;28;20064;-73
2022/04/17 02:40:08;;;;;;;15.60;9.02;;;4.10;99.90;;;;;;5055619;28;20150;-73
2022/04/17 02:42:34;;;;;;;15.32;8.75;;;4.10;99.90;;;;;;5073168;28;20088;-73
2022/04/17 02:44:59;;;;;;;18.52;8.23;;;4.10;99.90;;;;;;5072984;28;20423;-74
2022/04/17 02:47:43;;;;;;;24.83;12.50;;;4.10;99.90;;;;;;5055345;28;20438;-74
2022/04/17 02:50:10;;;;;;;19.13;9.45;;;4.10;99.90;;;;;;5072526;28;20093;-72
2022/04/17 02:52:37;;;;;;;18.00;8.50;;;4.10;99.90;;;;;;5072792;28;20037;-76
2022/04/17 02:55:03;;;;;;;14.98;8.75;;;4.10;99.90;;;;;;5054835;28;20045;-74
2022/04/17 02:57:30;;;;;;;16.25;8.93;;;4.10;99.90;;;;;;5073032;28;20376;-75
2022/04/17 02:59:59;;;;;;;15.88;8.75;;;4.10;99.90;;;;;;5054866;28;20036;-74
2022/04/17 03:07:57;;;;;;;15.63;7.88;;;4.10;99.90;;;;;;5072428;28;20087;-72
2022/04/17 03:10:23;;;;;;;14.25;8.82;;;4.00;99.90;;;;;;5072717;28;20048;-73
2022/04/17 03:12:49;;;;;;;15.50;8.80;;;3.90;99.90;;;;;;5072607;28;20048;-72
2022/04/17 03:15:14;;;;;;;15.45;8.43;;;3.80;99.90;;;;;;5054784;28;20043;-72
2022/04/17 03:17:40;;;;;;;15.93;8.93;;;3.80;99.90;;;;;;5072617;28;20045;-73
2022/04/17 03:20:07;;;;;;;16.17;9.15;;;3.80;99.90;;;;;;5072382;28;20044;-74
2022/04/17 03:22:33;;;;;;;16.50;9.35;;;3.70;99.90;;;;;;5072061;28;20079;-73
2022/04/17 03:25:04;;;;;;;16.10;9.05;;;3.70;99.90;;;;;;5072646;28;20055;-72
2022/04/17 03:27:30;;;;;;;16.58;9.98;;;3.70;99.90;;;;;;5071850;28;20484;-74
2022/04/17 03:29:56;;;;;;;18.23;9.68;;;3.60;99.90;;;;;;5054691;28;20044;-77
2022/04/17 03:32:22;;;;;;;15.98;9.38;;;3.60;99.90;;;;;;5072425;28;20045;-73
2022/04/17 03:34:47;;;;;;;16.30;8.73;;;3.60;99.90;;;;;;5072525;28;20504;-74
2022/04/17 03:37:16;;;;;;;16.83;9.98;;;3.50;99.90;;;;;;5054384;28;20045;-73
2022/04/17 03:39:43;;;;;;;16.63;10.10;;;3.50;99.90;;;;;;5072049;28;20040;-75
2022/04/17 03:42:08;;;;;;;17.67;9.20;;;3.50;99.90;;;;;;5072325;28;20053;-74
2022/04/17 03:44:34;;;;;;;16.45;9.73;;;3.40;99.90;;;;;;5072333;28;20087;-74
2022/04/17 03:47:01;;;;;;;19.17;9.55;;;3.30;99.90;;;;;;5072380;28;20128;-73
2022/04/17 03:49:26;;;;;;;15.23;9.63;;;3.30;99.90;;;;;;5054264;28;20131;-74
2022/04/17 03:51:52;;;;;;;17.08;9.70;;;3.30;99.90;;;;;;5072158;28;20186;-75
2022/04/17 03:54:19;;;;;;;18.60;10.15;;;3.30;99.90;;;;;;5053855;28;20045;-74
2022/04/17 03:56:46;;;;;;;19.48;11.27;;;3.20;99.90;;;;;;5072258;28;20036;-74
2022/04/17 03:59:12;;;;;;;17.23;10.20;;;3.20;99.90;;;;;;5053861;28;20109;-74
2022/04/17 04:01:38;;;;;;;20.33;10.00;;;3.20;99.90;;;;;;5054232;28;20488;-73
2022/04/17 04:04:06;;;;;;;21.70;10.27;;;3.20;99.90;;;;;;5072042;28;20048;-73
2022/04/17 04:06:32;;;;;;;22.30;10.20;;;3.20;99.90;;;;;;5071990;28;20048;-73
2022/04/17 04:08:58;;;;;;;23.13;10.25;;;3.10;99.90;;;;;;5071808;28;20048;-74
2022/04/17 04:11:23;;;;;;;21.58;10.82;;;3.10;99.90;;;;;;5071643;28;20044;-74
2022/04/17 04:13:49;;;;;;;22.92;10.95;;;3.10;99.90;;;;;;5054159;28;20040;-73
2022/04/17 04:16:14;;;;;;;16.95;9.85;;;3.00;99.90;;;;;;5072141;28;20166;-74
2022/04/17 04:18:40;;;;;;;20.88;10.02;;;2.90;99.90;;;;;;5072086;28;20403;-74
2022/04/17 04:21:05;;;;;;;25.38;11.35;;;2.80;99.90;;;;;;5053963;28;20053;-74
2022/04/17 04:23:32;;;;;;;21.60;10.38;;;2.70;99.90;;;;;;5054150;28;20476;-74
2022/04/17 04:25:58;;;;;;;25.95;11.20;;;2.70;99.90;;;;;;5071576;28;20086;-71
2022/04/17 04:28:38;;;;;;;24.17;12.23;;;2.60;99.90;;;;;;5071654;28;20072;-73
2022/04/17 04:31:07;;;;;;;24.08;12.50;;;2.60;99.90;;;;;;5071881;28;20044;-71
2022/04/17 04:33:33;;;;;;;25.60;12.88;;;2.60;99.90;;;;;;5054253;28;20423;-74
2022/04/17 04:36:00;;;;;;;25.23;12.20;;;2.60;99.90;;;;;;5053880;28;20813;-75
2022/04/17 04:38:26;;;;;;;25.40;12.27;;;2.50;99.90;;;;;;5053725;28;20048;-72
2022/04/17 04:40:52;;;;;;;26.48;12.88;;;2.50;99.90;;;;;;5074616;28;20080;-74
2022/04/17 04:43:18;;;;;;;26.90;13.30;;;2.50;99.90;;;;;;5074739;28;20107;-74
2022/04/17 04:51:13;;;;;;;21.42;11.45;;;2.50;99.90;;;;;;5075129;28;20094;-73
2022/04/17 04:53:39;;;;;;;21.23;10.73;;;2.50;99.90;;;;;;5056818;28;20430;-73
2022/04/17 04:56:06;;;;;;;27.63;12.63;;;2.50;99.90;;;;;;5075261;28;20124;-74
2022/04/17 04:58:31;;;;;;;21.40;10.48;;;2.50;99.90;;;;;;5074449;28;20123;-72
2022/04/17 05:00:57;;;;;;;23.20;12.32;;;2.50;99.90;;;;;;5074838;28;20120;-73
2022/04/17 05:03:23;;;;;;;21.02;10.45;;;2.60;99.90;;;;;;5075089;28;20052;-73
2022/04/17 05:05:48;;;;;;;22.20;10.52;;;2.60;99.90;;;;;;5074872;28;20079;-74
2022/04/17 05:08:14;;;;;;;19.80;9.35;;;2.70;99.90;;;;;;5056708;28;20463;-73
2022/04/17 05:10:39;;;;;;;22.42;10.00;;;2.70;99.90;;;;;;5056929;28;20109;-73
2022/04/17 05:13:05;;;;;;;19.25;10.68;;;2.80;99.90;;;;;;5040296;28;20399;-73
2022/04/17 05:15:31;;;;;;;19.20;9.75;;;2.90;99.90;;;;;;5073936;28;20052;-73
2022/04/17 05:17:57;;;;;;;20.02;11.23;;;3.00;99.90;;;;;;5074536;28;20041;-73
2022/04/17 05:20:22;;;;;;;21.67;10.48;;;3.20;99.90;;;;;;5074433;28;20101;-73
2022/04/17 05:22:56;;;;;;;21.88;11.45;;;3.20;99.90;;;;;;5056875;28;20060;-73
2022/04/17 05:25:22;;;;;;;21.67;10.82;;;3.40;99.90;;;;;;5056440;28;20051;-74
2022/04/17 05:27:48;;;;;;;20.38;11.93;;;3.50;99.90;;;;;;5056716;28;20049;-74
2022/04/17 05:30:13;;;;;;;24.60;13.18;;;3.60;99.90;;;;;;5073880;28;20387;-75
2022/04/17 05:32:39;;;;;;;29.17;13.43;;;3.70;99.90;;;;;;5056263;28;20071;-74
2022/04/17 05:35:05;;;;;;;25.50;12.98;;;3.70;99.90;;;;;;5074485;28;20115;-74
2022/04/17 05:37:31;;;;;;;24.98;13.07;;;3.80;99.90;;;;;;5074287;28;20048;-73
2022/04/17 05:39:57;;;;;;;24.90;12.30;;;3.90;99.90;;;;;;5074372;28;20132;-74
2022/04/17 05:42:22;;;;;;;23.90;13.48;;;4.00;99.90;;;;;;5074316;28;20377;-75
2022/04/17 05:44:50;;;;;;;29.17;14.75;;;4.00;99.90;;;;;;5056264;28;20381;-74
2022/04/17 05:47:15;;;;;;;24.48;13.68;;;4.10;99.90;;;;;;5073300;28;20120;-74
2022/04/17 05:49:42;;;;;;;27.33;13.80;;;4.20;99.90;;;;;;5074051;28;20072;-74
2022/04/17 05:52:07;;;;;;;29.88;14.40;;;4.20;99.90;;;;;;5055838;28;20040;-72
2022/04/17 05:54:33;;;;;;;25.75;13.48;;;4.30;99.90;;;;;;5073989;28;20049;-75
2022/04/17 05:57:00;;;;;;;28.60;13.68;;;4.40;99.90;;;;;;5055303;28;20059;-73
2022/04/17 05:59:26;;;;;;;24.33;13.32;;;4.50;99.90;;;;;;5073877;28;20040;-75
2022/04/17 06:01:51;;;;;;;21.58;12.02;;;4.60;99.90;;;;;;5073183;28;20119;-73
2022/04/17 06:04:17;;;;;;;27.45;13.45;;;4.70;99.90;;;;;;5073792;28;20198;-73
2022/04/17 06:06:43;;;;;;;28.73;12.02;;;4.80;99.90;;;;;;5073817;28;20115;-73
2022/04/17 06:09:08;;;;;;;21.23;12.15;;;4.90;99.90;;;;;;5055767;28;20059;-73
2022/04/17 06:11:34;;;;;;;23.50;12.00;;;5.00;99.90;;;;;;5055568;28;20056;-73
2022/04/17 06:14:00;;;;;;;22.55;11.43;;;5.50;99.90;;;;;;5055164;28;20057;-73
2022/04/17 06:16:26;;;;;;;20.80;10.80;;;5.10;99.90;;;;;;5055719;28;20045;-75
2022/04/17 06:18:51;;;;;;;19.08;10.95;;;5.80;99.90;;;;;;5054913;28;20048;-74
2022/04/17 06:21:18;;;;;;;20.92;11.23;;;5.30;99.90;;;;;;5052035;28;20053;-74
2022/04/17 06:23:43;;;;;;;18.48;9.98;;;5.50;99.90;;;;;;5052292;28;20114;-75
2022/04/17 06:26:09;;;;;;;19.15;10.68;;;5.50;99.90;;;;;;5052182;28;20073;-75
2022/04/17 06:28:36;;;;;;;22.02;10.38;;;5.60;99.90;;;;;;5053397;28;20099;-75
2022/04/17 06:31:03;;;;;;;20.33;10.32;;;5.70;99.90;;;;;;5035369;28;20045;-73
2022/04/17 06:33:29;;;;;;;19.73;10.77;;;5.80;99.90;;;;;;5051857;28;20110;-74
2022/04/17 06:35:54;;;;;;;17.23;9.57;;;5.80;99.90;;;;;;5052945;28;20398;-77
2022/04/17 06:38:20;;;;;;;20.10;10.55;;;6.90;99.90;;;;;;5051920;28;20084;-75
2022/04/17 06:40:46;;;;;;;20.58;10.75;;;6.00;99.90;;;;;;5053343;28;20044;-73
2022/04/17 06:43:12;;;;;;;15.98;9.70;;;6.00;99.90;;;;;;5053005;28;20094;-71
2022/04/17 06:45:41;;;;;;;16.98;9.45;;;6.10;99.90;;;;;;5051644;28;20053;-73
2022/04/17 06:48:18;;;;;;;21.17;9.48;;;6.20;99.90;;;;;;5052963;28;20049;-75
2022/04/17 06:50:46;;;;;;;19.50;10.13;;;6.30;99.90;;;;;;5052471;28;20044;-75
2022/04/17 06:53:11;;;;;;;20.42;9.88;;;6.40;99.90;;;;;;5051606;28;20052;-73
2022/04/17 06:55:38;;;;;;;21.02;10.52;;;6.50;99.90;;;;;;5051777;28;20044;-74
2022/04/17 06:58:05;;;;;;;21.27;9.98;;;6.60;99.90;;;;;;5052822;28;20033;-73
2022/04/17 07:00:31;;;;;;;20.85;10.13;;;7.10;99.90;;;;;;5052946;28;20431;-72
2022/04/17 07:02:56;;;;;;;17.88;9.32;;;6.80;99.90;;;;;;5033375;28;20056;-73
2022/04/17 07:05:22;;;;;;;21.13;10.02;;;7.00;99.90;;;;;;5051422;28;20106;-73
2022/04/17 07:07:59;;;;;;;17.80;9.48;;;7.10;99.90;;;;;;5051053;28;20143;-74
2022/04/17 07:10:26;;;;;;;18.17;9.40;;;7.20;99.90;;;;;;5052642;28;20087;-73
2022/04/17 07:12:53;;;;;;;20.02;10.52;;;7.70;99.90;;;;;;5052537;28;20045;-74
2022/04/17 07:15:19;;;;;;;15.50;8.95;;;7.50;99.90;;;;;;5052625;28;20111;-73
2022/04/17 07:17:45;;;;;;;17.60;9.57;;;7.60;99.90;;;;;;5042626;28;20579;-75
2022/04/17 07:20:11;;;;;;;20.08;9.60;;;7.80;99.90;;;;;;5051573;28;20045;-74
2022/04/17 07:22:38;;;;;;;18.08;8.93;;;7.90;99.90;;;;;;5036921;28;20552;-75
2022/04/17 07:25:05;;;;;;;21.70;9.00;;;8.10;99.90;;;;;;5052285;28;20489;-74
2022/04/17 07:27:45;;;;;;;16.58;8.52;;;8.20;99.90;;;;;;5034388;28;20045;-74
2022/04/17 07:30:22;;;;;;;15.75;8.38;;;8.40;99.90;;;;;;5052214;28;20055;-73
2022/04/17 07:32:50;;;;;;;17.77;8.30;;;9.30;99.90;;;;;;5052466;28;20088;-77
2022/04/17 07:35:17;;;;;;;17.95;8.45;;;8.70;99.90;;;;;;5052475;28;20041;-76
2022/04/17 07:37:52;;;;;;;14.18;7.45;;;8.80;99.90;;;;;;5052346;28;20088;-75
2022/04/17 07:40:21;;;;;;;18.58;8.43;;;9.00;99.90;;;;;;5051903;28;20045;-75
2022/04/17 07:42:48;;;;;;;16.25;7.65;;;9.10;99.90;;;;;;5052137;28;20493;-74
2022/04/17 07:45:15;;;;;;;15.30;7.70;;;9.30;99.90;;;;;;5052217;28;20488;-74
2022/04/17 07:47:42;;;;;;;16.13;7.50;;;9.40;99.90;;;;;;5052285;28;20041;-76
2022/04/17 07:50:09;;;;;;;17.20;6.60;;;9.50;99.90;;;;;;5034578;28;20060;-76
2022/04/17 07:52:35;;;;;;;14.52;6.68;;;9.70;99.90;;;;;;5052335;28;20048;-76
2022/04/17 07:55:02;;;;;;;14.98;6.55;;;10.10;99.90;;;;;;5051495;28;20388;-72
2022/04/17 07:57:28;;;;;;;14.13;6.63;;;9.90;99.90;;;;;;5051848;28;20109;-73
2022/04/17 07:59:55;;;;;;;13.82;6.93;;;10.30;99.90;;;;;;5034413;28;20499;-73
2022/04/17 08:02:28;;;;;;;15.23;6.68;;;10.20;99.90;;;;;;5044209;28;20049;-73
2022/04/17 08:04:55;;;;;;;14.25;6.93;;;10.30;99.90;;;;;;5072265;28;20076;-73
2022/04/17 08:07:21;;;;;;;14.98;6.70;;;10.50;99.90;;;;;;5072416;28;20052;-74
2022/04/17 08:09:47;;;;;;;11.68;6.20;;;10.60;99.90;;;;;;5082672;28;20047;-76
2022/04/17 08:12:13;;;;;;;13.43;6.60;;;10.70;99.90;;;;;;5073782;28;20111;-73
2022/04/17 08:14:39;;;;;;;12.13;6.28;;;10.90;99.90;;;;;;5089101;28;20045;-74
2022/04/17 08:17:05;;;;;;;10.98;5.65;;;11.00;99.80;;;;;;5092990;28;20044;-73
2022/04/17 08:19:32;;;;;;;16.70;5.93;;;11.00;98.00;;;;;;5095737;28;20115;-74
2022/04/17 08:21:58;;;;;;;13.85;5.65;;;11.00;96.80;;;;;;5095902;28;20048;-71
2022/04/17 08:24:24;;;;;;;10.40;5.43;;;11.00;95.90;;;;;;5095905;28;20407;-74
2022/04/17 08:26:50;;;;;;;11.20;5.35;;;11.10;97.40;;;;;;5059778;28;20060;-72
2022/04/17 08:29:17;;;;;;;13.57;5.60;;;11.20;96.70;;;;;;5095959;28;20032;-73
2022/04/17 08:31:43;;;;;;;10.30;5.13;;;11.40;96.40;;;;;;5077457;28;20059;-82
2022/04/17 08:34:08;;;;;;;12.43;5.20;;;11.50;95.20;;;;;;5077666;28;20463;-79
2022/04/17 08:36:34;;;;;;;10.90;5.20;;;11.70;94.40;;;;;;5077622;28;20050;-82
2022/04/17 08:39:00;;;;;;;12.02;5.00;;;11.80;95.40;;;;;;5095728;28;20040;-80
2022/04/17 08:41:27;;;;;;;10.73;4.28;;;11.90;91.50;;;;;;5069604;28;20106;-79
2022/04/17 08:43:52;;;;;;;11.00;5.28;;;12.00;94.10;;;;;;5083574;28;20071;-74
2022/04/17 08:46:18;;;;;;;10.63;5.20;;;12.10;93.10;;;;;;5075558;28;20044;-78
2022/04/17 08:48:44;;;;;;;10.32;4.43;;;12.20;91.80;;;;;;5057405;28;20041;-75
2022/04/17 08:51:10;;;;;;;9.93;4.60;;;12.30;92.60;;;;;;5075166;28;20060;-81
2022/04/17 08:53:38;;;;;;;14.15;5.38;;;12.40;91.60;;;;;;5057453;28;20054;-76
2022/04/17 08:56:04;;;;;;;11.82;5.07;;;12.70;92.00;;;;;;5075101;28;20458;-80
2022/04/17 08:58:31;;;;;;;10.18;4.85;;;12.70;87.80;;;;;;5074397;28;20126;-81
2022/04/17 09:00:56;;;;;;;10.93;4.88;;;12.80;83.30;;;;;;5075071;28;20116;-80
2022/04/17 09:03:23;;;;;;;11.63;4.82;;;12.90;78.60;;;;;;5075386;28;20460;-80
2022/04/17 09:05:49;;;;;;;10.60;4.47;;;12.90;85.20;;;;;;5075054;28;20052;-79
2022/04/17 09:08:21;;;;;;;11.40;4.85;;;13.10;86.90;;;;;;5057611;28;20076;-77
2022/04/17 09:10:58;;;;;;;11.68;4.03;;;13.30;85.20;;;;;;5062041;28;20059;-79
2022/04/17 09:13:33;;;;;;;12.10;4.90;;;13.40;81.70;;;;;;5077842;28;20368;-77
2022/04/17 09:16:01;;;;;;;9.60;4.45;;;13.30;75.70;;;;;;5074707;28;20392;-80
2022/04/17 09:18:31;;;;;;;9.43;4.50;;;13.50;75.10;;;;;;5074548;28;20068;-77
2022/04/17 09:21:03;;;;;;;15.48;5.03;;;13.50;78.00;;;;;;5075503;28;20091;-80
2022/04/17 09:23:37;;;;;;;8.32;3.90;;;13.80;76.20;;;;;;5074969;28;20041;-79
2022/04/17 09:26:07;;;;;;;10.48;3.97;;;13.70;72.90;;;;;;5074580;28;20048;-79
2022/04/17 09:28:35;;;;;;;10.02;4.32;;;13.70;74.30;;;;;;5075113;28;20046;-77
2022/04/17 09:31:08;;;;;;;10.23;4.15;;;13.90;75.00;;;;;;5074210;28;20043;-79
2022/04/17 09:33:42;;;;;;;10.63;4.38;;;13.90;72.10;;;;;;5074445;28;20093;-76
2022/04/17 09:36:08;;;;;;;10.88;4.55;;;14.10;72.30;;;;;;5074552;28;20048;-78
2022/04/17 09:38:34;;;;;;;10.60;3.92;;;14.40;74.30;;;;;;5074593;28;20044;-79
2022/04/17 09:41:07;;;;;;;8.90;4.03;;;14.40;75.00;;;;;;5074414;28;20071;-80
2022/04/17 09:43:36;;;;;;;10.48;4.55;;;14.60;72.40;;;;;;5074197;28;20041;-79
2022/04/17 09:46:06;;;;;;;10.35;3.95;;;14.70;73.40;;;;;;5055907;28;20618;-80
2022/04/17 09:48:38;;;;;;;9.50;3.53;;;14.80;66.10;;;;;;5073847;28;20395;-80
2022/04/17 09:51:26;;;;;;;10.07;3.67;;;14.90;64.30;;;;;;5074061;28;20449;-78
2022/04/17 09:54:00;;;;;;;10.05;3.60;;;15.00;57.80;;;;;;5056264;28;20049;-80
2022/04/17 09:56:39;;;;;;;10.55;3.92;;;14.90;64.40;;;;;;5056062;28;20049;-80
2022/04/17 09:59:23;;;;;;;8.55;3.42;;;15.10;63.90;;;;;;5054000;28;20404;-78
2022/04/17 10:01:54;;;;;;;8.25;3.33;;;15.20;63.10;;;;;;5052851;28;20045;-76
2022/04/17 10:04:22;;;;;;;8.38;3.63;;;15.40;62.50;;;;;;5053944;28;20041;-78
2022/04/17 10:06:49;;;;;;;8.35;3.50;;;15.30;64.30;;;;;;5053815;28;20056;-78
2022/04/17 10:09:15;;;;;;;9.55;3.92;;;15.50;64.70;;;;;;5053999;28;20454;-80
2022/04/17 10:11:41;;;;;;;9.88;4.07;;;15.60;62.50;;;;;;5053827;28;20124;-79
2022/04/17 10:14:08;;;;;;;12.20;4.13;;;15.60;62.40;;;;;;5054584;28;20051;-78
2022/04/17 10:16:34;;;;;;;10.02;4.43;;;15.50;63.00;;;;;;5093541;28;20044;-76
2022/04/17 10:19:06;;;;;;;9.20;3.65;;;15.50;62.30;;;;;;5082782;28;20040;-77
2022/04/17 10:21:36;;;;;;;10.68;4.35;;;15.60;59.80;;;;;;5066926;28;20063;-78
2022/04/17 10:24:04;;;;;;;9.70;4.20;;;15.70;61.30;;;;;;5077912;28;20056;-76
2022/04/17 10:26:57;;;;;;;9.70;3.72;;;15.60;60.70;;;;;;5085835;28;20488;-77
2022/04/17 10:29:32;;;;;;;7.90;3.35;;;15.70;57.70;;;;;;5080046;28;20044;-76
2022/04/17 10:32:20;;;;;;;8.90;3.45;;;15.70;54.70;;;;;;5082580;28;20466;-78
2022/04/17 10:34:50;;;;;;;9.10;3.72;;;15.70;50.90;;;;;;5075120;28;20041;-78
2022/04/17 10:37:28;;;;;;;9.88;4.15;;;15.70;55.70;;;;;;5062257;28;20033;-77
2022/04/17 10:39:57;;;;;;;8.50;3.20;;;15.80;54.30;;;;;;5058046;28;20048;-77
2022/04/17 10:42:36;;;;;;;8.32;3.35;;;16.10;57.20;;;;;;5078322;28;20052;-80
2022/04/17 10:45:04;;;;;;;8.27;3.58;;;16.30;55.50;;;;;;5073375;28;20053;-77
2022/04/17 10:47:30;;;;;;;9.88;4.07;;;16.40;56.80;;;;;;5077361;28;20040;-78
2022/04/17 10:49:57;;;;;;;8.88;3.95;;;16.40;56.60;;;;;;5080857;28;20399;-79
2022/04/17 10:52:33;;;;;;;8.27;3.33;;;16.40;53.30;;;;;;5085396;28;20039;-78
2022/04/17 10:55:10;;;;;;;9.48;3.70;;;16.40;54.10;;;;;;5072718;28;20047;-75
2022/04/17 10:57:46;;;;;;;8.93;3.35;;;16.40;53.90;;;;;;5081640;28;20068;-78
2022/04/17 11:00:25;;;;;;;10.48;3.78;;;16.30;52.20;;;;;;5083143;28;20047;-82
2022/04/17 11:02:51;;;;;;;8.05;3.35;;;16.50;55.90;;;;;;5076508;28;20081;-73
2022/04/17 11:08:27;;;;;;;9.80;3.55;;;16.50;48.60;;;;;;5080735;28;20127;-80
2022/04/17 11:11:02;;;;;;;9.82;3.38;;;16.40;48.20;;;;;;5078132;28;20052;-78
2022/04/17 11:13:27;;;;;;;9.25;3.67;;;16.30;52.20;;;;;;5083560;28;20048;-82
2022/04/17 11:15:58;;;;;;;8.88;4.00;;;16.40;52.70;;;;;;5056963;28;20060;-77
2022/04/17 11:18:27;;;;;;;8.50;3.22;;;16.60;54.00;;;;;;5093142;28;20051;-75
2022/04/17 11:20:55;;;;;;;10.35;4.05;;;16.80;54.80;;;;;;5082935;28;20056;-82
2022/04/17 11:23:48;;;;;;;9.45;3.92;;;17.00;54.10;;;;;;5091981;28;20083;-77
2022/04/17 11:26:15;;;;;;;14.77;3.72;;;17.00;49.50;;;;;;5092686;28;20122;-77
2022/04/17 11:28:41;;;;;;;9.43;3.60;;;17.20;53.70;;;;;;5092848;28;20051;-76
2022/04/17 11:31:07;;;;;;;9.52;3.65;;;17.30;53.50;;;;;;5074950;28;20070;-83
2022/04/17 11:33:32;;;;;;;8.00;3.20;;;17.30;50.70;;;;;;5092655;28;20123;-83
2022/04/17 11:35:58;;;;;;;8.73;3.42;;;17.20;52.20;;;;;;5074648;28;20054;-80
2022/04/17 11:38:24;;;;;;;9.95;3.67;;;17.20;50.50;;;;;;5092621;28;20044;-80
2022/04/17 11:40:50;;;;;;;8.40;3.28;;;17.30;52.80;;;;;;5092560;28;20071;-80
2022/04/17 11:43:17;;;;;;;9.95;3.65;;;17.40;52.50;;;;;;5092657;28;20047;-78
2022/04/17 11:45:45;;;;;;;7.75;3.33;;;17.50;49.60;;;;;;5092665;28;20047;-77
2022/04/17 11:48:13;;;;;;;10.23;3.83;;;17.30;47.30;;;;;;5074409;28;20052;-82
2022/04/17 11:50:40;;;;;;;9.02;3.60;;;17.50;51.30;;;;;;5077737;28;20056;-75
2022/04/17 11:53:11;;;;;;;7.90;3.28;;;17.40;51.80;;;;;;5096706;28;20545;-75
2022/04/17 11:55:39;;;;;;;9.20;3.38;;;17.40;51.80;;;;;;5078371;28;20123;-76
2022/04/17 11:58:09;;;;;;;8.65;3.30;;;17.50;52.60;;;;;;5096583;28;20051;-83
2022/04/17 12:00:35;;;;;;;10.07;3.40;;;17.40;49.80;;;;;;5096656;28;20043;-81
2022/04/17 12:03:05;;;;;;;9.50;3.65;;;17.50;50.40;;;;;;5084183;28;20067;-79
2022/04/17 12:05:33;;;;;;;8.13;3.30;;;17.50;50.10;;;;;;5106693;28;20147;-81
2022/04/17 12:08:09;;;;;;;10.30;3.70;;;17.60;50.40;;;;;;5089532;28;20059;-81
2022/04/17 12:10:38;;;;;;;7.88;3.25;;;17.70;50.90;;;;;;5107467;28;20039;-81
2022/04/17 12:13:24;;;;;;;7.40;3.03;;;17.80;51.00;;;;;;5097954;28;20075;-81
2022/04/17 12:15:59;;;;;;;9.85;3.40;;;17.90;48.00;;;;;;5098062;28;20517;-82
2022/04/17 12:18:25;;;;;;;9.73;3.35;;;17.90;47.10;;;;;;5098455;28;20119;-82
2022/04/17 12:20:55;;;;;;;8.20;3.53;;;17.90;48.80;;;;;;5097218;28;20482;-79
2022/04/17 12:23:22;;;;;;;8.52;3.50;;;17.90;49.30;;;;;;5095701;28;20055;-82
2022/04/17 12:25:48;;;;;;;9.15;3.28;;;17.90;49.30;;;;;;5096063;28;20452;-79
2022/04/17 12:28:14;;;;;;;7.57;3.00;;;17.80;48.30;;;;;;5095177;28;20124;-77
2022/04/17 12:30:41;;;;;;;8.50;2.75;;;17.90;49.40;;;;;;5077185;28;20056;-82
2022/04/17 12:33:21;;;;;;;7.70;2.85;;;17.70;45.20;;;;;;5077709;28;20556;-80
2022/04/17 12:36:01;;;;;;;7.70;2.80;;;17.60;47.30;;;;;;5077481;28;20108;-81
2022/04/17 12:38:27;;;;;;;7.13;2.35;;;17.60;47.00;;;;;;5096210;28;20055;-76
2022/04/17 12:40:52;;;;;;;8.02;2.28;;;17.70;48.70;;;;;;5077625;28;20048;-79
2022/04/17 12:43:20;;;;;;;6.82;2.92;;;17.90;49.10;;;;;;5060283;28;20062;-80
2022/04/17 12:45:59;;;;;;;5.35;2.25;;;17.80;46.70;;;;;;5077404;28;20047;-74
2022/04/17 12:48:27;;;;;;;6.57;2.20;;;17.80;43.30;;;;;;5078175;28;20051;-76
2022/04/17 12:51:00;;;;;;;7.85;2.40;;;17.90;44.90;;;;;;5096884;28;20142;-74
2022/04/17 12:53:33;;;;;;;6.97;2.13;;;17.90;45.50;;;;;;5099040;28;20042;-79
2022/04/17 12:55:59;;;;;;;4.72;2.00;;;17.70;45.50;;;;;;5074731;28;20048;-79
2022/04/17 12:58:24;;;;;;;7.32;2.55;;;17.80;44.70;;;;;;5074193;28;20037;-77
2022/04/17 13:00:57;;;;;;;6.10;2.30;;;17.80;43.80;;;;;;5068057;28;20033;-83
2022/04/17 13:03:34;;;;;;;5.43;1.98;;;17.80;44.80;;;;;;5067937;28;20041;-80